<?xml version="1.0" encoding="UTF-8" standalone="no" ?>
<gpx xmlns="http://www.topografix.com/GPX/1/1" xmlns:xsi="http://www.w3.org/2001/XMLSchema-instance" xsi:schemaLocation="http://www.topografix.com/GPX/1/1 http://www.topografix.com/GPX/1/1/gpx.xsd" version="1.1" creator="VisuGPX - https://www.visugpx.com">
  <metadata>
    <name>LA BAUME CORNILLANNE LA RAYE GUY 10112022</name>
  </metadata>
  <trk>
    <name><![CDATA[LA BAUME CORNILLANNE LA RAYE GUY 10112022]]></name>
    <extensions>
      <line xmlns="http://www.topografix.com/GPX/gpx_style/0/2">
        <color>0000FF</color>
        <width>4</width>
      </line>
    </extensions>
    <trkseg>
      <trkpt lat="44.82358" lon="5.03916">
        <ele>322</ele>
        <time>2022-10-10T08:10:05+02:00</time>
      </trkpt>
      <trkpt lat="44.82371" lon="5.03943">
        <ele>321</ele>
        <time>2022-10-10T08:33:46+02:00</time>
      </trkpt>
      <trkpt lat="44.82361" lon="5.03972">
        <ele>325</ele>
        <time>2022-10-10T08:34:10+02:00</time>
      </trkpt>
      <trkpt lat="44.82337" lon="5.03973">
        <ele>329</ele>
        <time>2022-10-10T08:34:35+02:00</time>
      </trkpt>
      <trkpt lat="44.82317" lon="5.03956">
        <ele>328</ele>
        <time>2022-10-10T08:34:58+02:00</time>
      </trkpt>
      <trkpt lat="44.82318" lon="5.03992">
        <ele>332</ele>
        <time>2022-10-10T08:36:13+02:00</time>
      </trkpt>
      <trkpt lat="44.8233" lon="5.04021">
        <ele>334</ele>
        <time>2022-10-10T08:36:39+02:00</time>
      </trkpt>
      <trkpt lat="44.82339" lon="5.04053">
        <ele>337</ele>
        <time>2022-10-10T08:37:07+02:00</time>
      </trkpt>
      <trkpt lat="44.82349" lon="5.04081">
        <ele>341</ele>
        <time>2022-10-10T08:37:39+02:00</time>
      </trkpt>
      <trkpt lat="44.8236" lon="5.04109">
        <ele>345</ele>
        <time>2022-10-10T08:38:15+02:00</time>
      </trkpt>
      <trkpt lat="44.82365" lon="5.04142">
        <ele>349</ele>
        <time>2022-10-10T08:38:55+02:00</time>
      </trkpt>
      <trkpt lat="44.82365" lon="5.04174">
        <ele>354</ele>
        <time>2022-10-10T08:39:32+02:00</time>
      </trkpt>
      <trkpt lat="44.82373" lon="5.04206">
        <ele>361</ele>
        <time>2022-10-10T08:40:22+02:00</time>
      </trkpt>
      <trkpt lat="44.82377" lon="5.04239">
        <ele>369</ele>
        <time>2022-10-10T08:41:06+02:00</time>
      </trkpt>
      <trkpt lat="44.82385" lon="5.0427">
        <ele>373</ele>
        <time>2022-10-10T08:41:46+02:00</time>
      </trkpt>
      <trkpt lat="44.82385" lon="5.04303">
        <ele>379</ele>
        <time>2022-10-10T08:42:16+02:00</time>
      </trkpt>
      <trkpt lat="44.82382" lon="5.04335">
        <ele>385</ele>
        <time>2022-10-10T08:42:52+02:00</time>
      </trkpt>
      <trkpt lat="44.82365" lon="5.04356">
        <ele>391</ele>
        <time>2022-10-10T08:43:29+02:00</time>
      </trkpt>
      <trkpt lat="44.82342" lon="5.04367">
        <ele>394</ele>
        <time>2022-10-10T08:46:49+02:00</time>
      </trkpt>
      <trkpt lat="44.82362" lon="5.04384">
        <ele>391</ele>
        <time>2022-10-10T08:48:20+02:00</time>
      </trkpt>
      <trkpt lat="44.82386" lon="5.04379">
        <ele>392</ele>
        <time>2022-10-10T08:48:44+02:00</time>
      </trkpt>
      <trkpt lat="44.82409" lon="5.04374">
        <ele>392</ele>
        <time>2022-10-10T08:49:04+02:00</time>
      </trkpt>
      <trkpt lat="44.82432" lon="5.04366">
        <ele>392</ele>
        <time>2022-10-10T08:49:23+02:00</time>
      </trkpt>
      <trkpt lat="44.82457" lon="5.04361">
        <ele>392</ele>
        <time>2022-10-10T08:49:43+02:00</time>
      </trkpt>
      <trkpt lat="44.82476" lon="5.04381">
        <ele>394</ele>
        <time>2022-10-10T08:50:06+02:00</time>
      </trkpt>
      <trkpt lat="44.825" lon="5.04392">
        <ele>395</ele>
        <time>2022-10-10T08:50:28+02:00</time>
      </trkpt>
      <trkpt lat="44.82521" lon="5.04409">
        <ele>395</ele>
        <time>2022-10-10T08:50:47+02:00</time>
      </trkpt>
      <trkpt lat="44.82539" lon="5.04434">
        <ele>393</ele>
        <time>2022-10-10T08:51:06+02:00</time>
      </trkpt>
      <trkpt lat="44.82547" lon="5.04465">
        <ele>390</ele>
        <time>2022-10-10T08:51:23+02:00</time>
      </trkpt>
      <trkpt lat="44.82549" lon="5.04498">
        <ele>390</ele>
        <time>2022-10-10T08:51:41+02:00</time>
      </trkpt>
      <trkpt lat="44.82546" lon="5.04532">
        <ele>392</ele>
        <time>2022-10-10T08:52:02+02:00</time>
      </trkpt>
      <trkpt lat="44.82545" lon="5.04565">
        <ele>394</ele>
        <time>2022-10-10T08:52:28+02:00</time>
      </trkpt>
      <trkpt lat="44.82567" lon="5.04579">
        <ele>399</ele>
        <time>2022-10-10T08:53:04+02:00</time>
      </trkpt>
      <trkpt lat="44.82588" lon="5.04596">
        <ele>402</ele>
        <time>2022-10-10T08:53:34+02:00</time>
      </trkpt>
      <trkpt lat="44.82605" lon="5.04619">
        <ele>401</ele>
        <time>2022-10-10T08:53:54+02:00</time>
      </trkpt>
      <trkpt lat="44.82621" lon="5.04643">
        <ele>400</ele>
        <time>2022-10-10T08:54:16+02:00</time>
      </trkpt>
      <trkpt lat="44.82633" lon="5.04673">
        <ele>397</ele>
        <time>2022-10-10T08:54:39+02:00</time>
      </trkpt>
      <trkpt lat="44.82634" lon="5.04705">
        <ele>394</ele>
        <time>2022-10-10T08:54:59+02:00</time>
      </trkpt>
      <trkpt lat="44.82635" lon="5.04739">
        <ele>391</ele>
        <time>2022-10-10T08:55:20+02:00</time>
      </trkpt>
      <trkpt lat="44.82632" lon="5.04773">
        <ele>390</ele>
        <time>2022-10-10T08:55:42+02:00</time>
      </trkpt>
      <trkpt lat="44.82626" lon="5.04804">
        <ele>391</ele>
        <time>2022-10-10T08:56:04+02:00</time>
      </trkpt>
      <trkpt lat="44.82615" lon="5.04832">
        <ele>392</ele>
        <time>2022-10-10T08:56:27+02:00</time>
      </trkpt>
      <trkpt lat="44.82603" lon="5.0486">
        <ele>394</ele>
        <time>2022-10-10T08:56:49+02:00</time>
      </trkpt>
      <trkpt lat="44.82597" lon="5.04892">
        <ele>396</ele>
        <time>2022-10-10T08:57:13+02:00</time>
      </trkpt>
      <trkpt lat="44.82586" lon="5.04922">
        <ele>399</ele>
        <time>2022-10-10T08:57:39+02:00</time>
      </trkpt>
      <trkpt lat="44.82584" lon="5.04955">
        <ele>404</ele>
        <time>2022-10-10T08:58:05+02:00</time>
      </trkpt>
      <trkpt lat="44.82566" lon="5.04976">
        <ele>407</ele>
        <time>2022-10-10T09:00:05+02:00</time>
      </trkpt>
      <trkpt lat="44.82551" lon="5.05003">
        <ele>413</ele>
        <time>2022-10-10T09:00:37+02:00</time>
      </trkpt>
      <trkpt lat="44.8255" lon="5.05036">
        <ele>416</ele>
        <time>2022-10-10T09:01:02+02:00</time>
      </trkpt>
      <trkpt lat="44.82569" lon="5.05058">
        <ele>417</ele>
        <time>2022-10-10T09:01:23+02:00</time>
      </trkpt>
      <trkpt lat="44.82586" lon="5.05079">
        <ele>417</ele>
        <time>2022-10-10T09:01:41+02:00</time>
      </trkpt>
      <trkpt lat="44.82603" lon="5.05104">
        <ele>419</ele>
        <time>2022-10-10T09:02:02+02:00</time>
      </trkpt>
      <trkpt lat="44.82617" lon="5.05134">
        <ele>418</ele>
        <time>2022-10-10T09:02:21+02:00</time>
      </trkpt>
      <trkpt lat="44.8263" lon="5.05161">
        <ele>418</ele>
        <time>2022-10-10T09:02:39+02:00</time>
      </trkpt>
      <trkpt lat="44.82642" lon="5.05188">
        <ele>419</ele>
        <time>2022-10-10T09:02:58+02:00</time>
      </trkpt>
      <trkpt lat="44.82642" lon="5.05223">
        <ele>420</ele>
        <time>2022-10-10T09:03:18+02:00</time>
      </trkpt>
      <trkpt lat="44.82647" lon="5.05254">
        <ele>420</ele>
        <time>2022-10-10T09:03:36+02:00</time>
      </trkpt>
      <trkpt lat="44.82644" lon="5.05289">
        <ele>420</ele>
        <time>2022-10-10T09:03:57+02:00</time>
      </trkpt>
      <trkpt lat="44.82632" lon="5.05317">
        <ele>423</ele>
        <time>2022-10-10T09:04:20+02:00</time>
      </trkpt>
      <trkpt lat="44.82613" lon="5.05338">
        <ele>428</ele>
        <time>2022-10-10T09:04:46+02:00</time>
      </trkpt>
      <trkpt lat="44.82596" lon="5.05363">
        <ele>432</ele>
        <time>2022-10-10T09:05:16+02:00</time>
      </trkpt>
      <trkpt lat="44.82594" lon="5.05398">
        <ele>436</ele>
        <time>2022-10-10T09:05:48+02:00</time>
      </trkpt>
      <trkpt lat="44.82594" lon="5.05432">
        <ele>439</ele>
        <time>2022-10-10T09:06:18+02:00</time>
      </trkpt>
      <trkpt lat="44.82598" lon="5.05466">
        <ele>442</ele>
        <time>2022-10-10T09:06:48+02:00</time>
      </trkpt>
      <trkpt lat="44.82614" lon="5.0549">
        <ele>446</ele>
        <time>2022-10-10T09:07:15+02:00</time>
      </trkpt>
      <trkpt lat="44.82628" lon="5.05517">
        <ele>450</ele>
        <time>2022-10-10T09:07:42+02:00</time>
      </trkpt>
      <trkpt lat="44.82634" lon="5.05549">
        <ele>452</ele>
        <time>2022-10-10T09:10:28+02:00</time>
      </trkpt>
      <trkpt lat="44.82656" lon="5.05562">
        <ele>460</ele>
        <time>2022-10-10T09:11:10+02:00</time>
      </trkpt>
      <trkpt lat="44.82673" lon="5.05583">
        <ele>466</ele>
        <time>2022-10-10T09:13:13+02:00</time>
      </trkpt>
      <trkpt lat="44.82683" lon="5.05613">
        <ele>471</ele>
        <time>2022-10-10T09:13:50+02:00</time>
      </trkpt>
      <trkpt lat="44.82685" lon="5.05646">
        <ele>475</ele>
        <time>2022-10-10T09:14:31+02:00</time>
      </trkpt>
      <trkpt lat="44.82689" lon="5.05677">
        <ele>480</ele>
        <time>2022-10-10T09:15:05+02:00</time>
      </trkpt>
      <trkpt lat="44.82688" lon="5.05711">
        <ele>484</ele>
        <time>2022-10-10T09:15:38+02:00</time>
      </trkpt>
      <trkpt lat="44.82685" lon="5.05743">
        <ele>488</ele>
        <time>2022-10-10T09:16:13+02:00</time>
      </trkpt>
      <trkpt lat="44.82688" lon="5.05775">
        <ele>495</ele>
        <time>2022-10-10T09:16:48+02:00</time>
      </trkpt>
      <trkpt lat="44.82687" lon="5.05808">
        <ele>501</ele>
        <time>2022-10-10T09:17:23+02:00</time>
      </trkpt>
      <trkpt lat="44.82687" lon="5.0584">
        <ele>508</ele>
        <time>2022-10-10T09:18:06+02:00</time>
      </trkpt>
      <trkpt lat="44.82679" lon="5.05871">
        <ele>513</ele>
        <time>2022-10-10T09:18:53+02:00</time>
      </trkpt>
      <trkpt lat="44.82674" lon="5.05904">
        <ele>517</ele>
        <time>2022-10-10T09:19:37+02:00</time>
      </trkpt>
      <trkpt lat="44.82673" lon="5.05936">
        <ele>522</ele>
        <time>2022-10-10T09:20:16+02:00</time>
      </trkpt>
      <trkpt lat="44.82681" lon="5.05968">
        <ele>529</ele>
        <time>2022-10-10T09:20:59+02:00</time>
      </trkpt>
      <trkpt lat="44.82696" lon="5.05995">
        <ele>534</ele>
        <time>2022-10-10T09:21:31+02:00</time>
      </trkpt>
      <trkpt lat="44.82705" lon="5.06024">
        <ele>532</ele>
        <time>2022-10-10T09:26:45+02:00</time>
      </trkpt>
      <trkpt lat="44.82708" lon="5.06057">
        <ele>531</ele>
        <time>2022-10-10T09:28:27+02:00</time>
      </trkpt>
      <trkpt lat="44.82701" lon="5.06089">
        <ele>534</ele>
        <time>2022-10-10T09:28:56+02:00</time>
      </trkpt>
      <trkpt lat="44.82688" lon="5.06117">
        <ele>539</ele>
        <time>2022-10-10T09:29:27+02:00</time>
      </trkpt>
      <trkpt lat="44.82682" lon="5.06149">
        <ele>542</ele>
        <time>2022-10-10T09:29:52+02:00</time>
      </trkpt>
      <trkpt lat="44.82681" lon="5.06182">
        <ele>544</ele>
        <time>2022-10-10T09:30:14+02:00</time>
      </trkpt>
      <trkpt lat="44.82679" lon="5.06214">
        <ele>546</ele>
        <time>2022-10-10T09:30:39+02:00</time>
      </trkpt>
      <trkpt lat="44.82672" lon="5.06245">
        <ele>552</ele>
        <time>2022-10-10T09:31:05+02:00</time>
      </trkpt>
      <trkpt lat="44.82666" lon="5.06277">
        <ele>560</ele>
        <time>2022-10-10T09:31:29+02:00</time>
      </trkpt>
      <trkpt lat="44.82664" lon="5.0631">
        <ele>566</ele>
        <time>2022-10-10T09:32:19+02:00</time>
      </trkpt>
      <trkpt lat="44.82657" lon="5.0634">
        <ele>570</ele>
        <time>2022-10-10T09:32:59+02:00</time>
      </trkpt>
      <trkpt lat="44.82651" lon="5.06372">
        <ele>575</ele>
        <time>2022-10-10T09:35:25+02:00</time>
      </trkpt>
      <trkpt lat="44.82652" lon="5.06407">
        <ele>581</ele>
        <time>2022-10-10T09:35:57+02:00</time>
      </trkpt>
      <trkpt lat="44.82654" lon="5.0644">
        <ele>587</ele>
        <time>2022-10-10T09:36:31+02:00</time>
      </trkpt>
      <trkpt lat="44.82659" lon="5.06472">
        <ele>594</ele>
        <time>2022-10-10T09:37:07+02:00</time>
      </trkpt>
      <trkpt lat="44.82666" lon="5.06502">
        <ele>600</ele>
        <time>2022-10-10T09:37:47+02:00</time>
      </trkpt>
      <trkpt lat="44.82665" lon="5.06536">
        <ele>609</ele>
        <time>2022-10-10T09:38:29+02:00</time>
      </trkpt>
      <trkpt lat="44.82669" lon="5.06569">
        <ele>615</ele>
        <time>2022-10-10T09:39:08+02:00</time>
      </trkpt>
      <trkpt lat="44.8267" lon="5.06603">
        <ele>622</ele>
        <time>2022-10-10T09:39:51+02:00</time>
      </trkpt>
      <trkpt lat="44.82662" lon="5.06634">
        <ele>630</ele>
        <time>2022-10-10T09:40:58+02:00</time>
      </trkpt>
      <trkpt lat="44.82666" lon="5.06666">
        <ele>638</ele>
        <time>2022-10-10T09:41:56+02:00</time>
      </trkpt>
      <trkpt lat="44.82659" lon="5.06697">
        <ele>645</ele>
        <time>2022-10-10T09:42:53+02:00</time>
      </trkpt>
      <trkpt lat="44.82648" lon="5.06725">
        <ele>652</ele>
        <time>2022-10-10T09:43:37+02:00</time>
      </trkpt>
      <trkpt lat="44.82643" lon="5.06757">
        <ele>658</ele>
        <time>2022-10-10T09:44:17+02:00</time>
      </trkpt>
      <trkpt lat="44.82642" lon="5.06789">
        <ele>665</ele>
        <time>2022-10-10T09:44:55+02:00</time>
      </trkpt>
      <trkpt lat="44.82645" lon="5.06821">
        <ele>671</ele>
        <time>2022-10-10T09:45:40+02:00</time>
      </trkpt>
      <trkpt lat="44.82654" lon="5.0685">
        <ele>678</ele>
        <time>2022-10-10T09:52:53+02:00</time>
      </trkpt>
      <trkpt lat="44.8267" lon="5.06873">
        <ele>684</ele>
        <time>2022-10-10T09:53:34+02:00</time>
      </trkpt>
      <trkpt lat="44.82685" lon="5.06897">
        <ele>692</ele>
        <time>2022-10-10T09:54:11+02:00</time>
      </trkpt>
      <trkpt lat="44.82704" lon="5.06918">
        <ele>699</ele>
        <time>2022-10-10T09:54:54+02:00</time>
      </trkpt>
      <trkpt lat="44.82724" lon="5.06935">
        <ele>705</ele>
        <time>2022-10-10T09:55:37+02:00</time>
      </trkpt>
      <trkpt lat="44.82744" lon="5.06953">
        <ele>714</ele>
        <time>2022-10-10T09:56:22+02:00</time>
      </trkpt>
      <trkpt lat="44.82765" lon="5.06963">
        <ele>718</ele>
        <time>2022-10-10T09:56:58+02:00</time>
      </trkpt>
      <trkpt lat="44.82787" lon="5.06979">
        <ele>726</ele>
        <time>2022-10-10T09:57:50+02:00</time>
      </trkpt>
      <trkpt lat="44.82807" lon="5.06994">
        <ele>733</ele>
        <time>2022-10-10T09:58:36+02:00</time>
      </trkpt>
      <trkpt lat="44.82828" lon="5.07008">
        <ele>739</ele>
        <time>2022-10-10T09:59:25+02:00</time>
      </trkpt>
      <trkpt lat="44.82847" lon="5.07028">
        <ele>748</ele>
        <time>2022-10-10T10:00:14+02:00</time>
      </trkpt>
      <trkpt lat="44.82866" lon="5.07049">
        <ele>758</ele>
        <time>2022-10-10T10:00:56+02:00</time>
      </trkpt>
      <trkpt lat="44.82885" lon="5.0707">
        <ele>768</ele>
        <time>2022-10-10T10:01:51+02:00</time>
      </trkpt>
      <trkpt lat="44.82904" lon="5.07088">
        <ele>775</ele>
        <time>2022-10-10T10:02:31+02:00</time>
      </trkpt>
      <trkpt lat="44.82924" lon="5.07105">
        <ele>781</ele>
        <time>2022-10-10T10:03:21+02:00</time>
      </trkpt>
      <trkpt lat="44.82941" lon="5.07128">
        <ele>787</ele>
        <time>2022-10-10T10:04:09+02:00</time>
      </trkpt>
      <trkpt lat="44.82962" lon="5.07145">
        <ele>791</ele>
        <time>2022-10-10T10:05:03+02:00</time>
      </trkpt>
      <trkpt lat="44.82982" lon="5.07162">
        <ele>795</ele>
        <time>2022-10-10T10:12:53+02:00</time>
      </trkpt>
      <trkpt lat="44.83006" lon="5.07168">
        <ele>792</ele>
        <time>2022-10-10T10:13:25+02:00</time>
      </trkpt>
      <trkpt lat="44.83013" lon="5.07198">
        <ele>808</ele>
        <time>2022-10-10T10:14:09+02:00</time>
      </trkpt>
      <trkpt lat="44.82991" lon="5.07206">
        <ele>819</ele>
        <time>2022-10-10T10:14:56+02:00</time>
      </trkpt>
      <trkpt lat="44.83011" lon="5.07223">
        <ele>826</ele>
        <time>2022-10-10T10:16:01+02:00</time>
      </trkpt>
      <trkpt lat="44.83029" lon="5.07246">
        <ele>838</ele>
        <time>2022-10-10T10:16:55+02:00</time>
      </trkpt>
      <trkpt lat="44.83048" lon="5.07265">
        <ele>847</ele>
        <time>2022-10-10T10:18:19+02:00</time>
      </trkpt>
      <trkpt lat="44.83069" lon="5.0728">
        <ele>853</ele>
        <time>2022-10-10T10:18:57+02:00</time>
      </trkpt>
      <trkpt lat="44.83089" lon="5.07298">
        <ele>860</ele>
        <time>2022-10-10T10:19:36+02:00</time>
      </trkpt>
      <trkpt lat="44.83113" lon="5.07304">
        <ele>861</ele>
        <time>2022-10-10T10:20:09+02:00</time>
      </trkpt>
      <trkpt lat="44.83134" lon="5.07322">
        <ele>867</ele>
        <time>2022-10-10T10:20:46+02:00</time>
      </trkpt>
      <trkpt lat="44.83156" lon="5.07337">
        <ele>870</ele>
        <time>2022-10-10T10:21:28+02:00</time>
      </trkpt>
      <trkpt lat="44.83174" lon="5.07359">
        <ele>870</ele>
        <time>2022-10-10T10:30:19+02:00</time>
      </trkpt>
      <trkpt lat="44.83165" lon="5.07389">
        <ele>868</ele>
        <time>2022-10-10T10:30:59+02:00</time>
      </trkpt>
      <trkpt lat="44.8315" lon="5.07414">
        <ele>868</ele>
        <time>2022-10-10T10:31:25+02:00</time>
      </trkpt>
      <trkpt lat="44.83146" lon="5.07445">
        <ele>866</ele>
        <time>2022-10-10T10:33:06+02:00</time>
      </trkpt>
      <trkpt lat="44.83143" lon="5.07479">
        <ele>865</ele>
        <time>2022-10-10T10:33:25+02:00</time>
      </trkpt>
      <trkpt lat="44.83139" lon="5.0751">
        <ele>863</ele>
        <time>2022-10-10T10:33:44+02:00</time>
      </trkpt>
      <trkpt lat="44.83134" lon="5.07544">
        <ele>861</ele>
        <time>2022-10-10T10:34:03+02:00</time>
      </trkpt>
      <trkpt lat="44.83125" lon="5.07577">
        <ele>860</ele>
        <time>2022-10-10T10:34:22+02:00</time>
      </trkpt>
      <trkpt lat="44.83113" lon="5.07605">
        <ele>859</ele>
        <time>2022-10-10T10:34:41+02:00</time>
      </trkpt>
      <trkpt lat="44.83103" lon="5.07634">
        <ele>859</ele>
        <time>2022-10-10T10:34:59+02:00</time>
      </trkpt>
      <trkpt lat="44.83093" lon="5.07667">
        <ele>857</ele>
        <time>2022-10-10T10:35:19+02:00</time>
      </trkpt>
      <trkpt lat="44.83088" lon="5.077">
        <ele>855</ele>
        <time>2022-10-10T10:35:38+02:00</time>
      </trkpt>
      <trkpt lat="44.83079" lon="5.07734">
        <ele>854</ele>
        <time>2022-10-10T10:35:57+02:00</time>
      </trkpt>
      <trkpt lat="44.83071" lon="5.07765">
        <ele>853</ele>
        <time>2022-10-10T10:36:16+02:00</time>
      </trkpt>
      <trkpt lat="44.83064" lon="5.07797">
        <ele>852</ele>
        <time>2022-10-10T10:36:35+02:00</time>
      </trkpt>
      <trkpt lat="44.83059" lon="5.07828">
        <ele>850</ele>
        <time>2022-10-10T10:36:54+02:00</time>
      </trkpt>
      <trkpt lat="44.83052" lon="5.07861">
        <ele>848</ele>
        <time>2022-10-10T10:37:16+02:00</time>
      </trkpt>
      <trkpt lat="44.83047" lon="5.07894">
        <ele>844</ele>
        <time>2022-10-10T10:37:40+02:00</time>
      </trkpt>
      <trkpt lat="44.83042" lon="5.07929">
        <ele>839</ele>
        <time>2022-10-10T10:38:22+02:00</time>
      </trkpt>
      <trkpt lat="44.83041" lon="5.07962">
        <ele>834</ele>
        <time>2022-10-10T10:38:45+02:00</time>
      </trkpt>
      <trkpt lat="44.83049" lon="5.07994">
        <ele>828</ele>
        <time>2022-10-10T10:39:08+02:00</time>
      </trkpt>
      <trkpt lat="44.83053" lon="5.08027">
        <ele>822</ele>
        <time>2022-10-10T10:40:00+02:00</time>
      </trkpt>
      <trkpt lat="44.83056" lon="5.08058">
        <ele>817</ele>
        <time>2022-10-10T10:40:30+02:00</time>
      </trkpt>
      <trkpt lat="44.83064" lon="5.0809">
        <ele>810</ele>
        <time>2022-10-10T10:40:59+02:00</time>
      </trkpt>
      <trkpt lat="44.83071" lon="5.08122">
        <ele>806</ele>
        <time>2022-10-10T10:41:27+02:00</time>
      </trkpt>
      <trkpt lat="44.83071" lon="5.08154">
        <ele>803</ele>
        <time>2022-10-10T10:41:54+02:00</time>
      </trkpt>
      <trkpt lat="44.83077" lon="5.08188">
        <ele>797</ele>
        <time>2022-10-10T10:42:22+02:00</time>
      </trkpt>
      <trkpt lat="44.8309" lon="5.08214">
        <ele>792</ele>
        <time>2022-10-10T10:42:53+02:00</time>
      </trkpt>
      <trkpt lat="44.83099" lon="5.08245">
        <ele>790</ele>
        <time>2022-10-10T10:43:39+02:00</time>
      </trkpt>
      <trkpt lat="44.83101" lon="5.08277">
        <ele>789</ele>
        <time>2022-10-10T10:44:20+02:00</time>
      </trkpt>
      <trkpt lat="44.83113" lon="5.08305">
        <ele>789</ele>
        <time>2022-10-10T10:44:44+02:00</time>
      </trkpt>
      <trkpt lat="44.83126" lon="5.08335">
        <ele>786</ele>
        <time>2022-10-10T10:45:07+02:00</time>
      </trkpt>
      <trkpt lat="44.8314" lon="5.08364">
        <ele>783</ele>
        <time>2022-10-10T10:45:32+02:00</time>
      </trkpt>
      <trkpt lat="44.83152" lon="5.08393">
        <ele>782</ele>
        <time>2022-10-10T10:45:55+02:00</time>
      </trkpt>
      <trkpt lat="44.83164" lon="5.08421">
        <ele>780</ele>
        <time>2022-10-10T10:46:15+02:00</time>
      </trkpt>
      <trkpt lat="44.83168" lon="5.08454">
        <ele>780</ele>
        <time>2022-10-10T10:46:37+02:00</time>
      </trkpt>
      <trkpt lat="44.83179" lon="5.08484">
        <ele>780</ele>
        <time>2022-10-10T10:46:57+02:00</time>
      </trkpt>
      <trkpt lat="44.83188" lon="5.08516">
        <ele>779</ele>
        <time>2022-10-10T10:47:19+02:00</time>
      </trkpt>
      <trkpt lat="44.83197" lon="5.08549">
        <ele>778</ele>
        <time>2022-10-10T10:47:41+02:00</time>
      </trkpt>
      <trkpt lat="44.83206" lon="5.08581">
        <ele>777</ele>
        <time>2022-10-10T10:48:01+02:00</time>
      </trkpt>
      <trkpt lat="44.83216" lon="5.08613">
        <ele>776</ele>
        <time>2022-10-10T10:48:17+02:00</time>
      </trkpt>
      <trkpt lat="44.83224" lon="5.08644">
        <ele>775</ele>
        <time>2022-10-10T10:49:00+02:00</time>
      </trkpt>
      <trkpt lat="44.8323" lon="5.08674">
        <ele>774</ele>
        <time>2022-10-10T10:49:18+02:00</time>
      </trkpt>
      <trkpt lat="44.83236" lon="5.08705">
        <ele>773</ele>
        <time>2022-10-10T10:49:37+02:00</time>
      </trkpt>
      <trkpt lat="44.83241" lon="5.08736">
        <ele>772</ele>
        <time>2022-10-10T10:49:55+02:00</time>
      </trkpt>
      <trkpt lat="44.83244" lon="5.0877">
        <ele>772</ele>
        <time>2022-10-10T10:50:56+02:00</time>
      </trkpt>
      <trkpt lat="44.83257" lon="5.08798">
        <ele>770</ele>
        <time>2022-10-10T10:51:46+02:00</time>
      </trkpt>
      <trkpt lat="44.83272" lon="5.08824">
        <ele>769</ele>
        <time>2022-10-10T10:52:09+02:00</time>
      </trkpt>
      <trkpt lat="44.83249" lon="5.08833">
        <ele>769</ele>
        <time>2022-10-10T10:53:10+02:00</time>
      </trkpt>
      <trkpt lat="44.83226" lon="5.08836">
        <ele>770</ele>
        <time>2022-10-10T10:53:30+02:00</time>
      </trkpt>
      <trkpt lat="44.83201" lon="5.08839">
        <ele>771</ele>
        <time>2022-10-10T10:53:51+02:00</time>
      </trkpt>
      <trkpt lat="44.83177" lon="5.08838">
        <ele>771</ele>
        <time>2022-10-10T10:54:14+02:00</time>
      </trkpt>
      <trkpt lat="44.83155" lon="5.08852">
        <ele>771</ele>
        <time>2022-10-10T10:54:37+02:00</time>
      </trkpt>
      <trkpt lat="44.83131" lon="5.08844">
        <ele>773</ele>
        <time>2022-10-10T10:55:11+02:00</time>
      </trkpt>
      <trkpt lat="44.83116" lon="5.08821">
        <ele>776</ele>
        <time>2022-10-10T10:55:40+02:00</time>
      </trkpt>
      <trkpt lat="44.83099" lon="5.08799">
        <ele>779</ele>
        <time>2022-10-10T10:56:05+02:00</time>
      </trkpt>
      <trkpt lat="44.83081" lon="5.08777">
        <ele>781</ele>
        <time>2022-10-10T10:56:29+02:00</time>
      </trkpt>
      <trkpt lat="44.83064" lon="5.08755">
        <ele>782</ele>
        <time>2022-10-10T10:56:50+02:00</time>
      </trkpt>
      <trkpt lat="44.83046" lon="5.08733">
        <ele>784</ele>
        <time>2022-10-10T10:57:11+02:00</time>
      </trkpt>
      <trkpt lat="44.83031" lon="5.08705">
        <ele>786</ele>
        <time>2022-10-10T10:57:31+02:00</time>
      </trkpt>
      <trkpt lat="44.83015" lon="5.08681">
        <ele>788</ele>
        <time>2022-10-10T10:57:52+02:00</time>
      </trkpt>
      <trkpt lat="44.82999" lon="5.08658">
        <ele>790</ele>
        <time>2022-10-10T10:58:12+02:00</time>
      </trkpt>
      <trkpt lat="44.82982" lon="5.08635">
        <ele>791</ele>
        <time>2022-10-10T10:58:32+02:00</time>
      </trkpt>
      <trkpt lat="44.82967" lon="5.0861">
        <ele>792</ele>
        <time>2022-10-10T10:58:52+02:00</time>
      </trkpt>
      <trkpt lat="44.82948" lon="5.08587">
        <ele>794</ele>
        <time>2022-10-10T10:59:15+02:00</time>
      </trkpt>
      <trkpt lat="44.82932" lon="5.08563">
        <ele>795</ele>
        <time>2022-10-10T10:59:35+02:00</time>
      </trkpt>
      <trkpt lat="44.82916" lon="5.08539">
        <ele>797</ele>
        <time>2022-10-10T10:59:55+02:00</time>
      </trkpt>
      <trkpt lat="44.829" lon="5.08516">
        <ele>799</ele>
        <time>2022-10-10T11:00:14+02:00</time>
      </trkpt>
      <trkpt lat="44.82884" lon="5.08492">
        <ele>800</ele>
        <time>2022-10-10T11:00:34+02:00</time>
      </trkpt>
      <trkpt lat="44.82868" lon="5.08468">
        <ele>802</ele>
        <time>2022-10-10T11:00:56+02:00</time>
      </trkpt>
      <trkpt lat="44.82853" lon="5.08444">
        <ele>803</ele>
        <time>2022-10-10T11:01:14+02:00</time>
      </trkpt>
      <trkpt lat="44.82836" lon="5.08418">
        <ele>805</ele>
        <time>2022-10-10T11:01:35+02:00</time>
      </trkpt>
      <trkpt lat="44.82819" lon="5.08392">
        <ele>807</ele>
        <time>2022-10-10T11:01:59+02:00</time>
      </trkpt>
      <trkpt lat="44.82801" lon="5.08369">
        <ele>808</ele>
        <time>2022-10-10T11:02:25+02:00</time>
      </trkpt>
      <trkpt lat="44.82779" lon="5.08355">
        <ele>810</ele>
        <time>2022-10-10T11:03:37+02:00</time>
      </trkpt>
      <trkpt lat="44.8276" lon="5.08333">
        <ele>813</ele>
        <time>2022-10-10T11:04:18+02:00</time>
      </trkpt>
      <trkpt lat="44.8274" lon="5.08318">
        <ele>815</ele>
        <time>2022-10-10T11:04:43+02:00</time>
      </trkpt>
      <trkpt lat="44.82721" lon="5.083">
        <ele>819</ele>
        <time>2022-10-10T11:05:06+02:00</time>
      </trkpt>
      <trkpt lat="44.82699" lon="5.08287">
        <ele>821</ele>
        <time>2022-10-10T11:05:31+02:00</time>
      </trkpt>
      <trkpt lat="44.82678" lon="5.08275">
        <ele>823</ele>
        <time>2022-10-10T11:05:55+02:00</time>
      </trkpt>
      <trkpt lat="44.82655" lon="5.08266">
        <ele>826</ele>
        <time>2022-10-10T11:06:20+02:00</time>
      </trkpt>
      <trkpt lat="44.82632" lon="5.08257">
        <ele>829</ele>
        <time>2022-10-10T11:06:43+02:00</time>
      </trkpt>
      <trkpt lat="44.82607" lon="5.08252">
        <ele>830</ele>
        <time>2022-10-10T11:07:05+02:00</time>
      </trkpt>
      <trkpt lat="44.82583" lon="5.08248">
        <ele>830</ele>
        <time>2022-10-10T11:07:25+02:00</time>
      </trkpt>
      <trkpt lat="44.82558" lon="5.08245">
        <ele>830</ele>
        <time>2022-10-10T11:07:47+02:00</time>
      </trkpt>
      <trkpt lat="44.82535" lon="5.0824">
        <ele>830</ele>
        <time>2022-10-10T11:08:06+02:00</time>
      </trkpt>
      <trkpt lat="44.82514" lon="5.08228">
        <ele>830</ele>
        <time>2022-10-10T11:08:26+02:00</time>
      </trkpt>
      <trkpt lat="44.82492" lon="5.08216">
        <ele>830</ele>
        <time>2022-10-10T11:08:46+02:00</time>
      </trkpt>
      <trkpt lat="44.82473" lon="5.08194">
        <ele>832</ele>
        <time>2022-10-10T11:09:09+02:00</time>
      </trkpt>
      <trkpt lat="44.8245" lon="5.08183">
        <ele>835</ele>
        <time>2022-10-10T11:09:35+02:00</time>
      </trkpt>
      <trkpt lat="44.82431" lon="5.08163">
        <ele>839</ele>
        <time>2022-10-10T11:10:00+02:00</time>
      </trkpt>
      <trkpt lat="44.82409" lon="5.08152">
        <ele>840</ele>
        <time>2022-10-10T11:10:25+02:00</time>
      </trkpt>
      <trkpt lat="44.82385" lon="5.08148">
        <ele>840</ele>
        <time>2022-10-10T11:10:51+02:00</time>
      </trkpt>
      <trkpt lat="44.8236" lon="5.0815">
        <ele>840</ele>
        <time>2022-10-10T11:11:14+02:00</time>
      </trkpt>
      <trkpt lat="44.82338" lon="5.08157">
        <ele>841</ele>
        <time>2022-10-10T11:11:35+02:00</time>
      </trkpt>
      <trkpt lat="44.82315" lon="5.08159">
        <ele>842</ele>
        <time>2022-10-10T11:11:54+02:00</time>
      </trkpt>
      <trkpt lat="44.8229" lon="5.08158">
        <ele>842</ele>
        <time>2022-10-10T11:12:17+02:00</time>
      </trkpt>
      <trkpt lat="44.82266" lon="5.08158">
        <ele>843</ele>
        <time>2022-10-10T11:12:37+02:00</time>
      </trkpt>
      <trkpt lat="44.82241" lon="5.08155">
        <ele>844</ele>
        <time>2022-10-10T11:12:58+02:00</time>
      </trkpt>
      <trkpt lat="44.82217" lon="5.08147">
        <ele>845</ele>
        <time>2022-10-10T11:13:18+02:00</time>
      </trkpt>
      <trkpt lat="44.82194" lon="5.08142">
        <ele>848</ele>
        <time>2022-10-10T11:13:43+02:00</time>
      </trkpt>
      <trkpt lat="44.82176" lon="5.08162">
        <ele>850</ele>
        <time>2022-10-10T11:14:06+02:00</time>
      </trkpt>
      <trkpt lat="44.82157" lon="5.08179">
        <ele>851</ele>
        <time>2022-10-10T11:14:28+02:00</time>
      </trkpt>
      <trkpt lat="44.82132" lon="5.08177">
        <ele>854</ele>
        <time>2022-10-10T11:14:54+02:00</time>
      </trkpt>
      <trkpt lat="44.82111" lon="5.08164">
        <ele>856</ele>
        <time>2022-10-10T11:15:15+02:00</time>
      </trkpt>
      <trkpt lat="44.82096" lon="5.0814">
        <ele>859</ele>
        <time>2022-10-10T11:15:43+02:00</time>
      </trkpt>
      <trkpt lat="44.82078" lon="5.08117">
        <ele>861</ele>
        <time>2022-10-10T11:16:09+02:00</time>
      </trkpt>
      <trkpt lat="44.82057" lon="5.081">
        <ele>863</ele>
        <time>2022-10-10T11:19:02+02:00</time>
      </trkpt>
      <trkpt lat="44.82033" lon="5.0809">
        <ele>864</ele>
        <time>2022-10-10T11:20:29+02:00</time>
      </trkpt>
      <trkpt lat="44.82009" lon="5.08086">
        <ele>865</ele>
        <time>2022-10-10T11:20:47+02:00</time>
      </trkpt>
      <trkpt lat="44.81988" lon="5.08072">
        <ele>866</ele>
        <time>2022-10-10T11:21:06+02:00</time>
      </trkpt>
      <trkpt lat="44.81969" lon="5.08053">
        <ele>867</ele>
        <time>2022-10-10T11:21:25+02:00</time>
      </trkpt>
      <trkpt lat="44.8195" lon="5.08033">
        <ele>869</ele>
        <time>2022-10-10T11:21:46+02:00</time>
      </trkpt>
      <trkpt lat="44.81927" lon="5.08024">
        <ele>869</ele>
        <time>2022-10-10T11:22:07+02:00</time>
      </trkpt>
      <trkpt lat="44.81906" lon="5.08011">
        <ele>870</ele>
        <time>2022-10-10T11:22:28+02:00</time>
      </trkpt>
      <trkpt lat="44.81886" lon="5.0799">
        <ele>873</ele>
        <time>2022-10-10T11:22:50+02:00</time>
      </trkpt>
      <trkpt lat="44.81863" lon="5.07979">
        <ele>873</ele>
        <time>2022-10-10T11:23:10+02:00</time>
      </trkpt>
      <trkpt lat="44.81846" lon="5.07956">
        <ele>874</ele>
        <time>2022-10-10T11:23:28+02:00</time>
      </trkpt>
      <trkpt lat="44.81831" lon="5.07931">
        <ele>877</ele>
        <time>2022-10-10T11:24:04+02:00</time>
      </trkpt>
      <trkpt lat="44.81806" lon="5.07933">
        <ele>874</ele>
        <time>2022-10-10T11:24:22+02:00</time>
      </trkpt>
      <trkpt lat="44.81783" lon="5.07936">
        <ele>876</ele>
        <time>2022-10-10T11:24:44+02:00</time>
      </trkpt>
      <trkpt lat="44.81759" lon="5.07932">
        <ele>881</ele>
        <time>2022-10-10T11:25:06+02:00</time>
      </trkpt>
      <trkpt lat="44.81737" lon="5.07921">
        <ele>885</ele>
        <time>2022-10-10T11:25:26+02:00</time>
      </trkpt>
      <trkpt lat="44.81718" lon="5.07904">
        <ele>889</ele>
        <time>2022-10-10T11:25:50+02:00</time>
      </trkpt>
      <trkpt lat="44.81696" lon="5.07887">
        <ele>893</ele>
        <time>2022-10-10T11:26:16+02:00</time>
      </trkpt>
      <trkpt lat="44.81678" lon="5.07865">
        <ele>898</ele>
        <time>2022-10-10T11:26:46+02:00</time>
      </trkpt>
      <trkpt lat="44.81662" lon="5.07842">
        <ele>903</ele>
        <time>2022-10-10T11:27:13+02:00</time>
      </trkpt>
      <trkpt lat="44.81643" lon="5.0782">
        <ele>905</ele>
        <time>2022-10-10T11:27:42+02:00</time>
      </trkpt>
      <trkpt lat="44.81627" lon="5.07796">
        <ele>907</ele>
        <time>2022-10-10T11:28:09+02:00</time>
      </trkpt>
      <trkpt lat="44.8161" lon="5.0777">
        <ele>909</ele>
        <time>2022-10-10T11:28:35+02:00</time>
      </trkpt>
      <trkpt lat="44.81593" lon="5.07747">
        <ele>912</ele>
        <time>2022-10-10T11:28:58+02:00</time>
      </trkpt>
      <trkpt lat="44.81575" lon="5.07727">
        <ele>914</ele>
        <time>2022-10-10T11:29:17+02:00</time>
      </trkpt>
      <trkpt lat="44.81554" lon="5.07716">
        <ele>916</ele>
        <time>2022-10-10T11:29:42+02:00</time>
      </trkpt>
      <trkpt lat="44.81531" lon="5.07713">
        <ele>920</ele>
        <time>2022-10-10T11:30:10+02:00</time>
      </trkpt>
      <trkpt lat="44.81507" lon="5.07716">
        <ele>924</ele>
        <time>2022-10-10T11:30:38+02:00</time>
      </trkpt>
      <trkpt lat="44.81484" lon="5.07723">
        <ele>927</ele>
        <time>2022-10-10T11:31:09+02:00</time>
      </trkpt>
      <trkpt lat="44.81463" lon="5.07738">
        <ele>928</ele>
        <time>2022-10-10T11:31:30+02:00</time>
      </trkpt>
      <trkpt lat="44.8144" lon="5.07738">
        <ele>933</ele>
        <time>2022-10-10T11:31:52+02:00</time>
      </trkpt>
      <trkpt lat="44.81416" lon="5.07737">
        <ele>937</ele>
        <time>2022-10-10T11:32:15+02:00</time>
      </trkpt>
      <trkpt lat="44.81393" lon="5.07725">
        <ele>942</ele>
        <time>2022-10-10T11:32:41+02:00</time>
      </trkpt>
      <trkpt lat="44.81373" lon="5.07709">
        <ele>945</ele>
        <time>2022-10-10T11:33:03+02:00</time>
      </trkpt>
      <trkpt lat="44.81351" lon="5.07699">
        <ele>947</ele>
        <time>2022-10-10T11:33:33+02:00</time>
      </trkpt>
      <trkpt lat="44.81355" lon="5.07668">
        <ele>955</ele>
        <time>2022-10-10T11:34:12+02:00</time>
      </trkpt>
      <trkpt lat="44.81341" lon="5.07641">
        <ele>960</ele>
        <time>2022-10-10T11:35:08+02:00</time>
      </trkpt>
      <trkpt lat="44.81326" lon="5.07614">
        <ele>964</ele>
        <time>2022-10-10T11:35:55+02:00</time>
      </trkpt>
      <trkpt lat="44.81313" lon="5.07588">
        <ele>968</ele>
        <time>2022-10-10T11:40:32+02:00</time>
      </trkpt>
      <trkpt lat="44.81311" lon="5.07588">
        <ele>968</ele>
        <time>2022-10-10T11:40:35+02:00</time>
      </trkpt>
      <trkpt lat="44.8132" lon="5.07557">
        <ele>977</ele>
        <time>2022-10-10T11:41:27+02:00</time>
      </trkpt>
      <trkpt lat="44.81338" lon="5.07535">
        <ele>983</ele>
        <time>2022-10-10T11:42:12+02:00</time>
      </trkpt>
      <trkpt lat="44.81354" lon="5.0751">
        <ele>992</ele>
        <time>2022-10-10T11:42:47+02:00</time>
      </trkpt>
      <trkpt lat="44.81334" lon="5.0749">
        <ele>994</ele>
        <time>2022-10-10T11:43:58+02:00</time>
      </trkpt>
      <trkpt lat="44.81311" lon="5.07478">
        <ele>993</ele>
        <time>2022-10-10T11:44:18+02:00</time>
      </trkpt>
      <trkpt lat="44.81328" lon="5.07456">
        <ele>999</ele>
        <time>2022-10-10T11:46:30+02:00</time>
      </trkpt>
      <trkpt lat="44.81352" lon="5.07459">
        <ele>1002</ele>
        <time>2022-10-10T11:48:23+02:00</time>
      </trkpt>
      <trkpt lat="44.81368" lon="5.07436">
        <ele>1006</ele>
        <time>2022-10-10T11:49:42+02:00</time>
      </trkpt>
      <trkpt lat="44.8138" lon="5.07409">
        <ele>1003</ele>
        <time>2022-10-10T11:50:27+02:00</time>
      </trkpt>
      <trkpt lat="44.8137" lon="5.07438">
        <ele>1006</ele>
        <time>2022-10-10T11:57:52+02:00</time>
      </trkpt>
      <trkpt lat="44.81351" lon="5.0746">
        <ele>1002</ele>
        <time>2022-10-10T12:03:54+02:00</time>
      </trkpt>
      <trkpt lat="44.81329" lon="5.07456">
        <ele>999</ele>
        <time>2022-10-10T12:04:15+02:00</time>
      </trkpt>
      <trkpt lat="44.81305" lon="5.07456">
        <ele>994</ele>
        <time>2022-10-10T12:04:42+02:00</time>
      </trkpt>
      <trkpt lat="44.81283" lon="5.07451">
        <ele>992</ele>
        <time>2022-10-10T12:05:33+02:00</time>
      </trkpt>
      <trkpt lat="44.8126" lon="5.07455">
        <ele>991</ele>
        <time>2022-10-10T12:06:03+02:00</time>
      </trkpt>
      <trkpt lat="44.81237" lon="5.0746">
        <ele>989</ele>
        <time>2022-10-10T12:06:34+02:00</time>
      </trkpt>
      <trkpt lat="44.81214" lon="5.07456">
        <ele>986</ele>
        <time>2022-10-10T12:06:59+02:00</time>
      </trkpt>
      <trkpt lat="44.81191" lon="5.07454">
        <ele>981</ele>
        <time>2022-10-10T13:00:50+02:00</time>
      </trkpt>
      <trkpt lat="44.81169" lon="5.0746">
        <ele>979</ele>
        <time>2022-10-10T13:09:45+02:00</time>
      </trkpt>
      <trkpt lat="44.81148" lon="5.07478">
        <ele>980</ele>
        <time>2022-10-10T13:10:29+02:00</time>
      </trkpt>
      <trkpt lat="44.81129" lon="5.07499">
        <ele>980</ele>
        <time>2022-10-10T13:11:07+02:00</time>
      </trkpt>
      <trkpt lat="44.81107" lon="5.07513">
        <ele>981</ele>
        <time>2022-10-10T13:11:40+02:00</time>
      </trkpt>
      <trkpt lat="44.81085" lon="5.07523">
        <ele>983</ele>
        <time>2022-10-10T13:12:13+02:00</time>
      </trkpt>
      <trkpt lat="44.81062" lon="5.07529">
        <ele>982</ele>
        <time>2022-10-10T13:12:36+02:00</time>
      </trkpt>
      <trkpt lat="44.8104" lon="5.07542">
        <ele>983</ele>
        <time>2022-10-10T13:13:11+02:00</time>
      </trkpt>
      <trkpt lat="44.81017" lon="5.07541">
        <ele>980</ele>
        <time>2022-10-10T13:13:38+02:00</time>
      </trkpt>
      <trkpt lat="44.80995" lon="5.07552">
        <ele>985</ele>
        <time>2022-10-10T13:17:42+02:00</time>
      </trkpt>
      <trkpt lat="44.80972" lon="5.07562">
        <ele>986</ele>
        <time>2022-10-10T13:18:15+02:00</time>
      </trkpt>
      <trkpt lat="44.80948" lon="5.07566">
        <ele>988</ele>
        <time>2022-10-10T13:18:42+02:00</time>
      </trkpt>
      <trkpt lat="44.80924" lon="5.07556">
        <ele>989</ele>
        <time>2022-10-10T13:19:12+02:00</time>
      </trkpt>
      <trkpt lat="44.80902" lon="5.07563">
        <ele>990</ele>
        <time>2022-10-10T13:20:03+02:00</time>
      </trkpt>
      <trkpt lat="44.80879" lon="5.0757">
        <ele>987</ele>
        <time>2022-10-10T13:21:17+02:00</time>
      </trkpt>
      <trkpt lat="44.80856" lon="5.0756">
        <ele>984</ele>
        <time>2022-10-10T13:21:56+02:00</time>
      </trkpt>
      <trkpt lat="44.80834" lon="5.07568">
        <ele>979</ele>
        <time>2022-10-10T13:22:29+02:00</time>
      </trkpt>
      <trkpt lat="44.8081" lon="5.07573">
        <ele>973</ele>
        <time>2022-10-10T13:23:14+02:00</time>
      </trkpt>
      <trkpt lat="44.80787" lon="5.07568">
        <ele>965</ele>
        <time>2022-10-10T13:23:55+02:00</time>
      </trkpt>
      <trkpt lat="44.80763" lon="5.07568">
        <ele>958</ele>
        <time>2022-10-10T13:24:26+02:00</time>
      </trkpt>
      <trkpt lat="44.8074" lon="5.07567">
        <ele>953</ele>
        <time>2022-10-10T13:24:58+02:00</time>
      </trkpt>
      <trkpt lat="44.80717" lon="5.07568">
        <ele>951</ele>
        <time>2022-10-10T13:25:22+02:00</time>
      </trkpt>
      <trkpt lat="44.80694" lon="5.0757">
        <ele>951</ele>
        <time>2022-10-10T13:25:44+02:00</time>
      </trkpt>
      <trkpt lat="44.8067" lon="5.07571">
        <ele>952</ele>
        <time>2022-10-10T13:26:15+02:00</time>
      </trkpt>
      <trkpt lat="44.80647" lon="5.07574">
        <ele>955</ele>
        <time>2022-10-10T13:26:45+02:00</time>
      </trkpt>
      <trkpt lat="44.80624" lon="5.07581">
        <ele>959</ele>
        <time>2022-10-10T13:27:17+02:00</time>
      </trkpt>
      <trkpt lat="44.80602" lon="5.07595">
        <ele>960</ele>
        <time>2022-10-10T13:27:49+02:00</time>
      </trkpt>
      <trkpt lat="44.80579" lon="5.07593">
        <ele>964</ele>
        <time>2022-10-10T13:28:19+02:00</time>
      </trkpt>
      <trkpt lat="44.80555" lon="5.07601">
        <ele>966</ele>
        <time>2022-10-10T13:28:44+02:00</time>
      </trkpt>
      <trkpt lat="44.80532" lon="5.07601">
        <ele>966</ele>
        <time>2022-10-10T13:29:42+02:00</time>
      </trkpt>
      <trkpt lat="44.80508" lon="5.07611">
        <ele>963</ele>
        <time>2022-10-10T13:35:55+02:00</time>
      </trkpt>
      <trkpt lat="44.80483" lon="5.07613">
        <ele>961</ele>
        <time>2022-10-10T13:36:20+02:00</time>
      </trkpt>
      <trkpt lat="44.8046" lon="5.07613">
        <ele>959</ele>
        <time>2022-10-10T13:36:42+02:00</time>
      </trkpt>
      <trkpt lat="44.80437" lon="5.07602">
        <ele>956</ele>
        <time>2022-10-10T13:37:10+02:00</time>
      </trkpt>
      <trkpt lat="44.80415" lon="5.07596">
        <ele>952</ele>
        <time>2022-10-10T13:37:37+02:00</time>
      </trkpt>
      <trkpt lat="44.80392" lon="5.07586">
        <ele>951</ele>
        <time>2022-10-10T13:38:06+02:00</time>
      </trkpt>
      <trkpt lat="44.80369" lon="5.0758">
        <ele>950</ele>
        <time>2022-10-10T13:38:35+02:00</time>
      </trkpt>
      <trkpt lat="44.80346" lon="5.07577">
        <ele>949</ele>
        <time>2022-10-10T13:38:57+02:00</time>
      </trkpt>
      <trkpt lat="44.80321" lon="5.07572">
        <ele>946</ele>
        <time>2022-10-10T13:39:19+02:00</time>
      </trkpt>
      <trkpt lat="44.80297" lon="5.07573">
        <ele>941</ele>
        <time>2022-10-10T13:39:50+02:00</time>
      </trkpt>
      <trkpt lat="44.80274" lon="5.07559">
        <ele>940</ele>
        <time>2022-10-10T13:40:21+02:00</time>
      </trkpt>
      <trkpt lat="44.80252" lon="5.07548">
        <ele>937</ele>
        <time>2022-10-10T13:44:33+02:00</time>
      </trkpt>
      <trkpt lat="44.80229" lon="5.07545">
        <ele>933</ele>
        <time>2022-10-10T13:45:08+02:00</time>
      </trkpt>
      <trkpt lat="44.80206" lon="5.07536">
        <ele>929</ele>
        <time>2022-10-10T13:45:41+02:00</time>
      </trkpt>
      <trkpt lat="44.80183" lon="5.07533">
        <ele>928</ele>
        <time>2022-10-10T13:46:08+02:00</time>
      </trkpt>
      <trkpt lat="44.8016" lon="5.07534">
        <ele>925</ele>
        <time>2022-10-10T13:46:43+02:00</time>
      </trkpt>
      <trkpt lat="44.80137" lon="5.07537">
        <ele>919</ele>
        <time>2022-10-10T13:47:24+02:00</time>
      </trkpt>
      <trkpt lat="44.80114" lon="5.07539">
        <ele>914</ele>
        <time>2022-10-10T13:47:59+02:00</time>
      </trkpt>
      <trkpt lat="44.80091" lon="5.0753">
        <ele>910</ele>
        <time>2022-10-10T13:48:27+02:00</time>
      </trkpt>
      <trkpt lat="44.80067" lon="5.07527">
        <ele>905</ele>
        <time>2022-10-10T13:48:48+02:00</time>
      </trkpt>
      <trkpt lat="44.80043" lon="5.0752">
        <ele>899</ele>
        <time>2022-10-10T13:49:14+02:00</time>
      </trkpt>
      <trkpt lat="44.80019" lon="5.07516">
        <ele>892</ele>
        <time>2022-10-10T13:49:42+02:00</time>
      </trkpt>
      <trkpt lat="44.79996" lon="5.07499">
        <ele>887</ele>
        <time>2022-10-10T13:50:24+02:00</time>
      </trkpt>
      <trkpt lat="44.79978" lon="5.07479">
        <ele>881</ele>
        <time>2022-10-10T13:50:51+02:00</time>
      </trkpt>
      <trkpt lat="44.7996" lon="5.07457">
        <ele>875</ele>
        <time>2022-10-10T13:51:20+02:00</time>
      </trkpt>
      <trkpt lat="44.79941" lon="5.07437">
        <ele>868</ele>
        <time>2022-10-10T13:51:52+02:00</time>
      </trkpt>
      <trkpt lat="44.79918" lon="5.07424">
        <ele>862</ele>
        <time>2022-10-10T13:52:32+02:00</time>
      </trkpt>
      <trkpt lat="44.79894" lon="5.07425">
        <ele>858</ele>
        <time>2022-10-10T13:55:40+02:00</time>
      </trkpt>
      <trkpt lat="44.79872" lon="5.07414">
        <ele>853</ele>
        <time>2022-10-10T13:56:10+02:00</time>
      </trkpt>
      <trkpt lat="44.79851" lon="5.07427">
        <ele>850</ele>
        <time>2022-10-10T13:56:36+02:00</time>
      </trkpt>
      <trkpt lat="44.79829" lon="5.07436">
        <ele>847</ele>
        <time>2022-10-10T13:57:05+02:00</time>
      </trkpt>
      <trkpt lat="44.79806" lon="5.07442">
        <ele>844</ele>
        <time>2022-10-10T13:57:30+02:00</time>
      </trkpt>
      <trkpt lat="44.79786" lon="5.07423">
        <ele>845</ele>
        <time>2022-10-10T13:58:18+02:00</time>
      </trkpt>
      <trkpt lat="44.79763" lon="5.07419">
        <ele>841</ele>
        <time>2022-10-10T14:03:46+02:00</time>
      </trkpt>
      <trkpt lat="44.79724" lon="5.07388">
        <ele>836</ele>
        <time>2022-10-10T14:07:01+02:00</time>
      </trkpt>
      <trkpt lat="44.79704" lon="5.07368">
        <ele>834</ele>
        <time>2022-10-10T14:07:28+02:00</time>
      </trkpt>
      <trkpt lat="44.79686" lon="5.0735">
        <ele>832</ele>
        <time>2022-10-10T14:07:56+02:00</time>
      </trkpt>
      <trkpt lat="44.79665" lon="5.07331">
        <ele>830</ele>
        <time>2022-10-10T14:09:12+02:00</time>
      </trkpt>
      <trkpt lat="44.79642" lon="5.07325">
        <ele>827</ele>
        <time>2022-10-10T14:09:30+02:00</time>
      </trkpt>
      <trkpt lat="44.79646" lon="5.07293">
        <ele>831</ele>
        <time>2022-10-10T14:10:00+02:00</time>
      </trkpt>
      <trkpt lat="44.79653" lon="5.07261">
        <ele>834</ele>
        <time>2022-10-10T14:10:28+02:00</time>
      </trkpt>
      <trkpt lat="44.79665" lon="5.07234">
        <ele>838</ele>
        <time>2022-10-10T14:11:02+02:00</time>
      </trkpt>
      <trkpt lat="44.79682" lon="5.0721">
        <ele>840</ele>
        <time>2022-10-10T14:11:40+02:00</time>
      </trkpt>
      <trkpt lat="44.79705" lon="5.0721">
        <ele>838</ele>
        <time>2022-10-10T14:19:01+02:00</time>
      </trkpt>
      <trkpt lat="44.7973" lon="5.07218">
        <ele>831</ele>
        <time>2022-10-10T14:19:31+02:00</time>
      </trkpt>
      <trkpt lat="44.79751" lon="5.07229">
        <ele>823</ele>
        <time>2022-10-10T14:20:04+02:00</time>
      </trkpt>
      <trkpt lat="44.79773" lon="5.07243">
        <ele>813</ele>
        <time>2022-10-10T14:20:33+02:00</time>
      </trkpt>
      <trkpt lat="44.79787" lon="5.07273">
        <ele>816</ele>
        <time>2022-10-10T14:21:00+02:00</time>
      </trkpt>
      <trkpt lat="44.79809" lon="5.07281">
        <ele>810</ele>
        <time>2022-10-10T14:22:20+02:00</time>
      </trkpt>
      <trkpt lat="44.79832" lon="5.07286">
        <ele>803</ele>
        <time>2022-10-10T14:22:46+02:00</time>
      </trkpt>
      <trkpt lat="44.79856" lon="5.07288">
        <ele>799</ele>
        <time>2022-10-10T14:23:16+02:00</time>
      </trkpt>
      <trkpt lat="44.79878" lon="5.07288">
        <ele>793</ele>
        <time>2022-10-10T14:23:49+02:00</time>
      </trkpt>
      <trkpt lat="44.79901" lon="5.07278">
        <ele>781</ele>
        <time>2022-10-10T14:24:19+02:00</time>
      </trkpt>
      <trkpt lat="44.79923" lon="5.07272">
        <ele>775</ele>
        <time>2022-10-10T14:24:44+02:00</time>
      </trkpt>
      <trkpt lat="44.79947" lon="5.07267">
        <ele>769</ele>
        <time>2022-10-10T14:25:19+02:00</time>
      </trkpt>
      <trkpt lat="44.7997" lon="5.07261">
        <ele>763</ele>
        <time>2022-10-10T14:25:48+02:00</time>
      </trkpt>
      <trkpt lat="44.79992" lon="5.07252">
        <ele>757</ele>
        <time>2022-10-10T14:26:20+02:00</time>
      </trkpt>
      <trkpt lat="44.80014" lon="5.07242">
        <ele>750</ele>
        <time>2022-10-10T14:26:47+02:00</time>
      </trkpt>
      <trkpt lat="44.80037" lon="5.07231">
        <ele>743</ele>
        <time>2022-10-10T14:27:17+02:00</time>
      </trkpt>
      <trkpt lat="44.8006" lon="5.07219">
        <ele>738</ele>
        <time>2022-10-10T14:27:47+02:00</time>
      </trkpt>
      <trkpt lat="44.80082" lon="5.07203">
        <ele>732</ele>
        <time>2022-10-10T14:28:14+02:00</time>
      </trkpt>
      <trkpt lat="44.80103" lon="5.07189">
        <ele>725</ele>
        <time>2022-10-10T14:28:37+02:00</time>
      </trkpt>
      <trkpt lat="44.80125" lon="5.07179">
        <ele>720</ele>
        <time>2022-10-10T14:29:03+02:00</time>
      </trkpt>
      <trkpt lat="44.80148" lon="5.07172">
        <ele>717</ele>
        <time>2022-10-10T14:29:30+02:00</time>
      </trkpt>
      <trkpt lat="44.80171" lon="5.07163">
        <ele>713</ele>
        <time>2022-10-10T14:29:57+02:00</time>
      </trkpt>
      <trkpt lat="44.80195" lon="5.07154">
        <ele>709</ele>
        <time>2022-10-10T14:30:23+02:00</time>
      </trkpt>
      <trkpt lat="44.80216" lon="5.07142">
        <ele>704</ele>
        <time>2022-10-10T14:30:46+02:00</time>
      </trkpt>
      <trkpt lat="44.80239" lon="5.07135">
        <ele>702</ele>
        <time>2022-10-10T14:31:10+02:00</time>
      </trkpt>
      <trkpt lat="44.80262" lon="5.07124">
        <ele>698</ele>
        <time>2022-10-10T14:31:32+02:00</time>
      </trkpt>
      <trkpt lat="44.80286" lon="5.07114">
        <ele>693</ele>
        <time>2022-10-10T14:31:58+02:00</time>
      </trkpt>
      <trkpt lat="44.80308" lon="5.07101">
        <ele>688</ele>
        <time>2022-10-10T14:32:22+02:00</time>
      </trkpt>
      <trkpt lat="44.8033" lon="5.07086">
        <ele>681</ele>
        <time>2022-10-10T14:32:47+02:00</time>
      </trkpt>
      <trkpt lat="44.80353" lon="5.07078">
        <ele>678</ele>
        <time>2022-10-10T14:33:12+02:00</time>
      </trkpt>
      <trkpt lat="44.80377" lon="5.07077">
        <ele>677</ele>
        <time>2022-10-10T14:33:37+02:00</time>
      </trkpt>
      <trkpt lat="44.80397" lon="5.07061">
        <ele>670</ele>
        <time>2022-10-10T14:34:07+02:00</time>
      </trkpt>
      <trkpt lat="44.80411" lon="5.07035">
        <ele>662</ele>
        <time>2022-10-10T14:34:35+02:00</time>
      </trkpt>
      <trkpt lat="44.80433" lon="5.07022">
        <ele>658</ele>
        <time>2022-10-10T14:35:02+02:00</time>
      </trkpt>
      <trkpt lat="44.80455" lon="5.07014">
        <ele>654</ele>
        <time>2022-10-10T14:35:27+02:00</time>
      </trkpt>
      <trkpt lat="44.80478" lon="5.07003">
        <ele>650</ele>
        <time>2022-10-10T14:35:53+02:00</time>
      </trkpt>
      <trkpt lat="44.805" lon="5.06989">
        <ele>643</ele>
        <time>2022-10-10T14:36:19+02:00</time>
      </trkpt>
      <trkpt lat="44.80519" lon="5.06969">
        <ele>637</ele>
        <time>2022-10-10T14:36:48+02:00</time>
      </trkpt>
      <trkpt lat="44.80536" lon="5.06948">
        <ele>632</ele>
        <time>2022-10-10T14:37:16+02:00</time>
      </trkpt>
      <trkpt lat="44.80555" lon="5.06929">
        <ele>628</ele>
        <time>2022-10-10T14:37:40+02:00</time>
      </trkpt>
      <trkpt lat="44.80578" lon="5.06916">
        <ele>625</ele>
        <time>2022-10-10T14:38:04+02:00</time>
      </trkpt>
      <trkpt lat="44.806" lon="5.06905">
        <ele>618</ele>
        <time>2022-10-10T14:38:27+02:00</time>
      </trkpt>
      <trkpt lat="44.80624" lon="5.06897">
        <ele>617</ele>
        <time>2022-10-10T14:38:49+02:00</time>
      </trkpt>
      <trkpt lat="44.80645" lon="5.06884">
        <ele>617</ele>
        <time>2022-10-10T14:39:10+02:00</time>
      </trkpt>
      <trkpt lat="44.80665" lon="5.06865">
        <ele>619</ele>
        <time>2022-10-10T14:39:33+02:00</time>
      </trkpt>
      <trkpt lat="44.80677" lon="5.06837">
        <ele>616</ele>
        <time>2022-10-10T14:39:58+02:00</time>
      </trkpt>
      <trkpt lat="44.80678" lon="5.06805">
        <ele>608</ele>
        <time>2022-10-10T14:40:28+02:00</time>
      </trkpt>
      <trkpt lat="44.8067" lon="5.06774">
        <ele>599</ele>
        <time>2022-10-10T14:41:03+02:00</time>
      </trkpt>
      <trkpt lat="44.80663" lon="5.06742">
        <ele>589</ele>
        <time>2022-10-10T14:41:45+02:00</time>
      </trkpt>
      <trkpt lat="44.80661" lon="5.0671">
        <ele>583</ele>
        <time>2022-10-10T14:42:22+02:00</time>
      </trkpt>
      <trkpt lat="44.80648" lon="5.06684">
        <ele>579</ele>
        <time>2022-10-10T14:45:22+02:00</time>
      </trkpt>
      <trkpt lat="44.80633" lon="5.06659">
        <ele>574</ele>
        <time>2022-10-10T14:45:47+02:00</time>
      </trkpt>
      <trkpt lat="44.80616" lon="5.06637">
        <ele>568</ele>
        <time>2022-10-10T14:46:12+02:00</time>
      </trkpt>
      <trkpt lat="44.80612" lon="5.06603">
        <ele>561</ele>
        <time>2022-10-10T14:46:50+02:00</time>
      </trkpt>
      <trkpt lat="44.80605" lon="5.06571">
        <ele>552</ele>
        <time>2022-10-10T14:47:17+02:00</time>
      </trkpt>
      <trkpt lat="44.80593" lon="5.06541">
        <ele>546</ele>
        <time>2022-10-10T14:47:56+02:00</time>
      </trkpt>
      <trkpt lat="44.80589" lon="5.06508">
        <ele>542</ele>
        <time>2022-10-10T14:48:31+02:00</time>
      </trkpt>
      <trkpt lat="44.80579" lon="5.06478">
        <ele>539</ele>
        <time>2022-10-10T14:48:55+02:00</time>
      </trkpt>
      <trkpt lat="44.80565" lon="5.06451">
        <ele>535</ele>
        <time>2022-10-10T14:49:21+02:00</time>
      </trkpt>
      <trkpt lat="44.80559" lon="5.0642">
        <ele>530</ele>
        <time>2022-10-10T14:50:13+02:00</time>
      </trkpt>
      <trkpt lat="44.80558" lon="5.06388">
        <ele>527</ele>
        <time>2022-10-10T14:50:43+02:00</time>
      </trkpt>
      <trkpt lat="44.80559" lon="5.06353">
        <ele>519</ele>
        <time>2022-10-10T14:51:10+02:00</time>
      </trkpt>
      <trkpt lat="44.80565" lon="5.06323">
        <ele>512</ele>
        <time>2022-10-10T14:51:42+02:00</time>
      </trkpt>
      <trkpt lat="44.80582" lon="5.06298">
        <ele>507</ele>
        <time>2022-10-10T14:52:11+02:00</time>
      </trkpt>
      <trkpt lat="44.80588" lon="5.06267">
        <ele>501</ele>
        <time>2022-10-10T14:52:43+02:00</time>
      </trkpt>
      <trkpt lat="44.80598" lon="5.06236">
        <ele>494</ele>
        <time>2022-10-10T14:55:11+02:00</time>
      </trkpt>
      <trkpt lat="44.80612" lon="5.06208">
        <ele>490</ele>
        <time>2022-10-10T14:55:39+02:00</time>
      </trkpt>
      <trkpt lat="44.80615" lon="5.06174">
        <ele>489</ele>
        <time>2022-10-10T14:56:10+02:00</time>
      </trkpt>
      <trkpt lat="44.8061" lon="5.06143">
        <ele>487</ele>
        <time>2022-10-10T14:56:39+02:00</time>
      </trkpt>
      <trkpt lat="44.80607" lon="5.06111">
        <ele>482</ele>
        <time>2022-10-10T14:57:03+02:00</time>
      </trkpt>
      <trkpt lat="44.806" lon="5.06077">
        <ele>476</ele>
        <time>2022-10-10T14:57:26+02:00</time>
      </trkpt>
      <trkpt lat="44.806" lon="5.06043">
        <ele>472</ele>
        <time>2022-10-10T14:57:51+02:00</time>
      </trkpt>
      <trkpt lat="44.80604" lon="5.0601">
        <ele>468</ele>
        <time>2022-10-10T14:58:14+02:00</time>
      </trkpt>
      <trkpt lat="44.80608" lon="5.05974">
        <ele>464</ele>
        <time>2022-10-10T14:58:38+02:00</time>
      </trkpt>
      <trkpt lat="44.8061" lon="5.05942">
        <ele>460</ele>
        <time>2022-10-10T14:59:01+02:00</time>
      </trkpt>
      <trkpt lat="44.80614" lon="5.0591">
        <ele>456</ele>
        <time>2022-10-10T14:59:25+02:00</time>
      </trkpt>
      <trkpt lat="44.8061" lon="5.05878">
        <ele>452</ele>
        <time>2022-10-10T14:59:50+02:00</time>
      </trkpt>
      <trkpt lat="44.80598" lon="5.05847">
        <ele>448</ele>
        <time>2022-10-10T15:00:16+02:00</time>
      </trkpt>
      <trkpt lat="44.80586" lon="5.05818">
        <ele>445</ele>
        <time>2022-10-10T15:00:38+02:00</time>
      </trkpt>
      <trkpt lat="44.80571" lon="5.05792">
        <ele>440</ele>
        <time>2022-10-10T15:00:56+02:00</time>
      </trkpt>
      <trkpt lat="44.80561" lon="5.05762">
        <ele>437</ele>
        <time>2022-10-10T15:01:15+02:00</time>
      </trkpt>
      <trkpt lat="44.80554" lon="5.0573">
        <ele>435</ele>
        <time>2022-10-10T15:01:33+02:00</time>
      </trkpt>
      <trkpt lat="44.80547" lon="5.05698">
        <ele>430</ele>
        <time>2022-10-10T15:01:55+02:00</time>
      </trkpt>
      <trkpt lat="44.80546" lon="5.05664">
        <ele>426</ele>
        <time>2022-10-10T15:02:18+02:00</time>
      </trkpt>
      <trkpt lat="44.80548" lon="5.05632">
        <ele>424</ele>
        <time>2022-10-10T15:02:58+02:00</time>
      </trkpt>
      <trkpt lat="44.80557" lon="5.05599">
        <ele>423</ele>
        <time>2022-10-10T15:03:24+02:00</time>
      </trkpt>
      <trkpt lat="44.80562" lon="5.05566">
        <ele>421</ele>
        <time>2022-10-10T15:03:47+02:00</time>
      </trkpt>
      <trkpt lat="44.80563" lon="5.05532">
        <ele>419</ele>
        <time>2022-10-10T15:04:15+02:00</time>
      </trkpt>
      <trkpt lat="44.80555" lon="5.05499">
        <ele>417</ele>
        <time>2022-10-10T15:04:39+02:00</time>
      </trkpt>
      <trkpt lat="44.80551" lon="5.05465">
        <ele>412</ele>
        <time>2022-10-10T15:05:03+02:00</time>
      </trkpt>
      <trkpt lat="44.80563" lon="5.05438">
        <ele>410</ele>
        <time>2022-10-10T15:05:24+02:00</time>
      </trkpt>
      <trkpt lat="44.80569" lon="5.05406">
        <ele>406</ele>
        <time>2022-10-10T15:05:47+02:00</time>
      </trkpt>
      <trkpt lat="44.80576" lon="5.05374">
        <ele>402</ele>
        <time>2022-10-10T15:07:02+02:00</time>
      </trkpt>
      <trkpt lat="44.80577" lon="5.05341">
        <ele>398</ele>
        <time>2022-10-10T15:07:23+02:00</time>
      </trkpt>
      <trkpt lat="44.80576" lon="5.05308">
        <ele>393</ele>
        <time>2022-10-10T15:07:53+02:00</time>
      </trkpt>
      <trkpt lat="44.80583" lon="5.05275">
        <ele>390</ele>
        <time>2022-10-10T15:08:11+02:00</time>
      </trkpt>
      <trkpt lat="44.80583" lon="5.05241">
        <ele>386</ele>
        <time>2022-10-10T15:08:34+02:00</time>
      </trkpt>
      <trkpt lat="44.80589" lon="5.0521">
        <ele>383</ele>
        <time>2022-10-10T15:09:01+02:00</time>
      </trkpt>
      <trkpt lat="44.80584" lon="5.05178">
        <ele>381</ele>
        <time>2022-10-10T15:09:21+02:00</time>
      </trkpt>
      <trkpt lat="44.80603" lon="5.0516">
        <ele>377</ele>
        <time>2022-10-10T15:11:22+02:00</time>
      </trkpt>
      <trkpt lat="44.80625" lon="5.05145">
        <ele>373</ele>
        <time>2022-10-10T15:11:50+02:00</time>
      </trkpt>
      <trkpt lat="44.80647" lon="5.05136">
        <ele>370</ele>
        <time>2022-10-10T15:12:20+02:00</time>
      </trkpt>
      <trkpt lat="44.80668" lon="5.05119">
        <ele>369</ele>
        <time>2022-10-10T15:12:48+02:00</time>
      </trkpt>
      <trkpt lat="44.80686" lon="5.05101">
        <ele>369</ele>
        <time>2022-10-10T15:13:19+02:00</time>
      </trkpt>
      <trkpt lat="44.80709" lon="5.05092">
        <ele>371</ele>
        <time>2022-10-10T15:13:42+02:00</time>
      </trkpt>
      <trkpt lat="44.80731" lon="5.05083">
        <ele>373</ele>
        <time>2022-10-10T15:14:08+02:00</time>
      </trkpt>
      <trkpt lat="44.80754" lon="5.05078">
        <ele>374</ele>
        <time>2022-10-10T15:14:35+02:00</time>
      </trkpt>
      <trkpt lat="44.80778" lon="5.05075">
        <ele>376</ele>
        <time>2022-10-10T15:14:57+02:00</time>
      </trkpt>
      <trkpt lat="44.80803" lon="5.05075">
        <ele>377</ele>
        <time>2022-10-10T15:15:20+02:00</time>
      </trkpt>
      <trkpt lat="44.80827" lon="5.05074">
        <ele>378</ele>
        <time>2022-10-10T15:15:42+02:00</time>
      </trkpt>
      <trkpt lat="44.80851" lon="5.05071">
        <ele>378</ele>
        <time>2022-10-10T15:16:05+02:00</time>
      </trkpt>
      <trkpt lat="44.80875" lon="5.05068">
        <ele>379</ele>
        <time>2022-10-10T15:16:28+02:00</time>
      </trkpt>
      <trkpt lat="44.80898" lon="5.05066">
        <ele>380</ele>
        <time>2022-10-10T15:16:48+02:00</time>
      </trkpt>
      <trkpt lat="44.8092" lon="5.05059">
        <ele>382</ele>
        <time>2022-10-10T15:17:11+02:00</time>
      </trkpt>
      <trkpt lat="44.80943" lon="5.05048">
        <ele>387</ele>
        <time>2022-10-10T15:17:36+02:00</time>
      </trkpt>
      <trkpt lat="44.80964" lon="5.05035">
        <ele>387</ele>
        <time>2022-10-10T15:18:01+02:00</time>
      </trkpt>
      <trkpt lat="44.80987" lon="5.05024">
        <ele>386</ele>
        <time>2022-10-10T15:18:23+02:00</time>
      </trkpt>
      <trkpt lat="44.8101" lon="5.05015">
        <ele>384</ele>
        <time>2022-10-10T15:18:43+02:00</time>
      </trkpt>
      <trkpt lat="44.81032" lon="5.05003">
        <ele>382</ele>
        <time>2022-10-10T15:19:03+02:00</time>
      </trkpt>
      <trkpt lat="44.81053" lon="5.04991">
        <ele>381</ele>
        <time>2022-10-10T15:19:24+02:00</time>
      </trkpt>
      <trkpt lat="44.81069" lon="5.04965">
        <ele>380</ele>
        <time>2022-10-10T15:19:46+02:00</time>
      </trkpt>
      <trkpt lat="44.8109" lon="5.04953">
        <ele>380</ele>
        <time>2022-10-10T15:20:06+02:00</time>
      </trkpt>
      <trkpt lat="44.81112" lon="5.0494">
        <ele>380</ele>
        <time>2022-10-10T15:20:26+02:00</time>
      </trkpt>
      <trkpt lat="44.81135" lon="5.04927">
        <ele>378</ele>
        <time>2022-10-10T15:20:46+02:00</time>
      </trkpt>
      <trkpt lat="44.81159" lon="5.04918">
        <ele>375</ele>
        <time>2022-10-10T15:21:06+02:00</time>
      </trkpt>
      <trkpt lat="44.81182" lon="5.04913">
        <ele>370</ele>
        <time>2022-10-10T15:21:26+02:00</time>
      </trkpt>
      <trkpt lat="44.81204" lon="5.04899">
        <ele>363</ele>
        <time>2022-10-10T15:22:11+02:00</time>
      </trkpt>
      <trkpt lat="44.8122" lon="5.04876">
        <ele>357</ele>
        <time>2022-10-10T15:22:38+02:00</time>
      </trkpt>
      <trkpt lat="44.81229" lon="5.04846">
        <ele>350</ele>
        <time>2022-10-10T15:23:26+02:00</time>
      </trkpt>
      <trkpt lat="44.8125" lon="5.04829">
        <ele>345</ele>
        <time>2022-10-10T15:23:51+02:00</time>
      </trkpt>
      <trkpt lat="44.8127" lon="5.04813">
        <ele>342</ele>
        <time>2022-10-10T15:24:22+02:00</time>
      </trkpt>
      <trkpt lat="44.81292" lon="5.04804">
        <ele>341</ele>
        <time>2022-10-10T15:24:59+02:00</time>
      </trkpt>
      <trkpt lat="44.81313" lon="5.04789">
        <ele>341</ele>
        <time>2022-10-10T15:25:21+02:00</time>
      </trkpt>
      <trkpt lat="44.81335" lon="5.04776">
        <ele>341</ele>
        <time>2022-10-10T15:25:45+02:00</time>
      </trkpt>
      <trkpt lat="44.81352" lon="5.04755">
        <ele>341</ele>
        <time>2022-10-10T15:26:04+02:00</time>
      </trkpt>
      <trkpt lat="44.81371" lon="5.04736">
        <ele>339</ele>
        <time>2022-10-10T15:26:25+02:00</time>
      </trkpt>
      <trkpt lat="44.81393" lon="5.04725">
        <ele>336</ele>
        <time>2022-10-10T15:26:44+02:00</time>
      </trkpt>
      <trkpt lat="44.81416" lon="5.04722">
        <ele>333</ele>
        <time>2022-10-10T15:27:06+02:00</time>
      </trkpt>
      <trkpt lat="44.81439" lon="5.04716">
        <ele>333</ele>
        <time>2022-10-10T15:27:28+02:00</time>
      </trkpt>
      <trkpt lat="44.81463" lon="5.04706">
        <ele>332</ele>
        <time>2022-10-10T15:27:51+02:00</time>
      </trkpt>
      <trkpt lat="44.81485" lon="5.04699">
        <ele>332</ele>
        <time>2022-10-10T15:28:14+02:00</time>
      </trkpt>
      <trkpt lat="44.81508" lon="5.04695">
        <ele>331</ele>
        <time>2022-10-10T15:28:37+02:00</time>
      </trkpt>
      <trkpt lat="44.81531" lon="5.04699">
        <ele>330</ele>
        <time>2022-10-10T15:29:01+02:00</time>
      </trkpt>
      <trkpt lat="44.81551" lon="5.04718">
        <ele>332</ele>
        <time>2022-10-10T15:29:26+02:00</time>
      </trkpt>
      <trkpt lat="44.81573" lon="5.04712">
        <ele>331</ele>
        <time>2022-10-10T15:33:55+02:00</time>
      </trkpt>
      <trkpt lat="44.8159" lon="5.04686">
        <ele>332</ele>
        <time>2022-10-10T15:34:19+02:00</time>
      </trkpt>
      <trkpt lat="44.81613" lon="5.04681">
        <ele>336</ele>
        <time>2022-10-10T15:34:38+02:00</time>
      </trkpt>
      <trkpt lat="44.81636" lon="5.04675">
        <ele>336</ele>
        <time>2022-10-10T15:34:59+02:00</time>
      </trkpt>
      <trkpt lat="44.81661" lon="5.04669">
        <ele>335</ele>
        <time>2022-10-10T15:35:19+02:00</time>
      </trkpt>
      <trkpt lat="44.81685" lon="5.04662">
        <ele>335</ele>
        <time>2022-10-10T15:35:38+02:00</time>
      </trkpt>
      <trkpt lat="44.81709" lon="5.04655">
        <ele>335</ele>
        <time>2022-10-10T15:35:58+02:00</time>
      </trkpt>
      <trkpt lat="44.81732" lon="5.04641">
        <ele>334</ele>
        <time>2022-10-10T15:36:19+02:00</time>
      </trkpt>
      <trkpt lat="44.81753" lon="5.04631">
        <ele>333</ele>
        <time>2022-10-10T15:36:39+02:00</time>
      </trkpt>
      <trkpt lat="44.81776" lon="5.04618">
        <ele>331</ele>
        <time>2022-10-10T15:37:00+02:00</time>
      </trkpt>
      <trkpt lat="44.81798" lon="5.04607">
        <ele>331</ele>
        <time>2022-10-10T15:37:18+02:00</time>
      </trkpt>
      <trkpt lat="44.81821" lon="5.04595">
        <ele>330</ele>
        <time>2022-10-10T15:37:38+02:00</time>
      </trkpt>
      <trkpt lat="44.81844" lon="5.04587">
        <ele>329</ele>
        <time>2022-10-10T15:37:57+02:00</time>
      </trkpt>
      <trkpt lat="44.81868" lon="5.04577">
        <ele>327</ele>
        <time>2022-10-10T15:38:17+02:00</time>
      </trkpt>
      <trkpt lat="44.8189" lon="5.04568">
        <ele>326</ele>
        <time>2022-10-10T15:38:36+02:00</time>
      </trkpt>
      <trkpt lat="44.81912" lon="5.04559">
        <ele>326</ele>
        <time>2022-10-10T15:38:54+02:00</time>
      </trkpt>
      <trkpt lat="44.81935" lon="5.04554">
        <ele>325</ele>
        <time>2022-10-10T15:39:11+02:00</time>
      </trkpt>
      <trkpt lat="44.81958" lon="5.04549">
        <ele>321</ele>
        <time>2022-10-10T15:39:31+02:00</time>
      </trkpt>
      <trkpt lat="44.81949" lon="5.0458">
        <ele>325</ele>
        <time>2022-10-10T15:40:22+02:00</time>
      </trkpt>
      <trkpt lat="44.81945" lon="5.04612">
        <ele>330</ele>
        <time>2022-10-10T15:41:17+02:00</time>
      </trkpt>
      <trkpt lat="44.81951" lon="5.04581">
        <ele>324</ele>
        <time>2022-10-10T15:42:24+02:00</time>
      </trkpt>
      <trkpt lat="44.81971" lon="5.04598">
        <ele>320</ele>
        <time>2022-10-10T15:43:49+02:00</time>
      </trkpt>
      <trkpt lat="44.81978" lon="5.04629">
        <ele>322</ele>
        <time>2022-10-10T15:44:12+02:00</time>
      </trkpt>
      <trkpt lat="44.82" lon="5.04642">
        <ele>318</ele>
        <time>2022-10-10T15:44:56+02:00</time>
      </trkpt>
      <trkpt lat="44.82015" lon="5.04671">
        <ele>321</ele>
        <time>2022-10-10T15:45:18+02:00</time>
      </trkpt>
      <trkpt lat="44.82029" lon="5.04696">
        <ele>322</ele>
        <time>2022-10-10T15:45:39+02:00</time>
      </trkpt>
      <trkpt lat="44.82041" lon="5.04725">
        <ele>326</ele>
        <time>2022-10-10T15:46:04+02:00</time>
      </trkpt>
      <trkpt lat="44.82051" lon="5.04756">
        <ele>328</ele>
        <time>2022-10-10T15:46:25+02:00</time>
      </trkpt>
      <trkpt lat="44.82055" lon="5.04789">
        <ele>328</ele>
        <time>2022-10-10T15:46:46+02:00</time>
      </trkpt>
      <trkpt lat="44.8205" lon="5.04824">
        <ele>329</ele>
        <time>2022-10-10T15:47:06+02:00</time>
      </trkpt>
      <trkpt lat="44.82044" lon="5.04857">
        <ele>332</ele>
        <time>2022-10-10T15:47:31+02:00</time>
      </trkpt>
      <trkpt lat="44.82037" lon="5.04889">
        <ele>336</ele>
        <time>2022-10-10T15:48:03+02:00</time>
      </trkpt>
      <trkpt lat="44.8202" lon="5.04912">
        <ele>345</ele>
        <time>2022-10-10T15:51:37+02:00</time>
      </trkpt>
      <trkpt lat="44.82003" lon="5.04932">
        <ele>354</ele>
        <time>2022-10-10T15:53:02+02:00</time>
      </trkpt>
      <trkpt lat="44.81979" lon="5.04933">
        <ele>359</ele>
        <time>2022-10-10T15:53:53+02:00</time>
      </trkpt>
      <trkpt lat="44.81958" lon="5.04948">
        <ele>369</ele>
        <time>2022-10-10T15:54:50+02:00</time>
      </trkpt>
      <trkpt lat="44.8196" lon="5.04914">
        <ele>355</ele>
        <time>2022-10-10T16:11:32+02:00</time>
      </trkpt>
      <trkpt lat="44.81984" lon="5.04915">
        <ele>352</ele>
        <time>2022-10-10T16:12:02+02:00</time>
      </trkpt>
      <trkpt lat="44.82008" lon="5.04918">
        <ele>348</ele>
        <time>2022-10-10T16:12:37+02:00</time>
      </trkpt>
      <trkpt lat="44.82029" lon="5.04908">
        <ele>342</ele>
        <time>2022-10-10T16:13:29+02:00</time>
      </trkpt>
      <trkpt lat="44.8204" lon="5.04879">
        <ele>335</ele>
        <time>2022-10-10T16:13:59+02:00</time>
      </trkpt>
      <trkpt lat="44.82051" lon="5.04851">
        <ele>331</ele>
        <time>2022-10-10T16:14:22+02:00</time>
      </trkpt>
      <trkpt lat="44.82054" lon="5.04817">
        <ele>329</ele>
        <time>2022-10-10T16:14:44+02:00</time>
      </trkpt>
      <trkpt lat="44.82049" lon="5.04783">
        <ele>329</ele>
        <time>2022-10-10T16:15:04+02:00</time>
      </trkpt>
      <trkpt lat="44.82039" lon="5.04749">
        <ele>328</ele>
        <time>2022-10-10T16:15:27+02:00</time>
      </trkpt>
      <trkpt lat="44.8203" lon="5.0472">
        <ele>325</ele>
        <time>2022-10-10T16:15:49+02:00</time>
      </trkpt>
      <trkpt lat="44.8202" lon="5.04691">
        <ele>323</ele>
        <time>2022-10-10T16:16:09+02:00</time>
      </trkpt>
      <trkpt lat="44.82005" lon="5.04663">
        <ele>320</ele>
        <time>2022-10-10T16:16:30+02:00</time>
      </trkpt>
      <trkpt lat="44.81988" lon="5.04637">
        <ele>321</ele>
        <time>2022-10-10T16:16:50+02:00</time>
      </trkpt>
      <trkpt lat="44.81971" lon="5.04614">
        <ele>322</ele>
        <time>2022-10-10T16:17:12+02:00</time>
      </trkpt>
      <trkpt lat="44.8196" lon="5.04582">
        <ele>322</ele>
        <time>2022-10-10T16:17:33+02:00</time>
      </trkpt>
      <trkpt lat="44.81962" lon="5.0455">
        <ele>320</ele>
        <time>2022-10-10T16:20:04+02:00</time>
      </trkpt>
      <trkpt lat="44.81978" lon="5.04525">
        <ele>315</ele>
        <time>2022-10-10T16:20:20+02:00</time>
      </trkpt>
      <trkpt lat="44.81999" lon="5.04511">
        <ele>311</ele>
        <time>2022-10-10T16:20:38+02:00</time>
      </trkpt>
      <trkpt lat="44.82021" lon="5.04498">
        <ele>315</ele>
        <time>2022-10-10T16:21:00+02:00</time>
      </trkpt>
      <trkpt lat="44.82033" lon="5.04472">
        <ele>316</ele>
        <time>2022-10-10T16:21:19+02:00</time>
      </trkpt>
      <trkpt lat="44.8204" lon="5.0444">
        <ele>319</ele>
        <time>2022-10-10T16:21:39+02:00</time>
      </trkpt>
      <trkpt lat="44.82044" lon="5.04408">
        <ele>322</ele>
        <time>2022-10-10T16:22:00+02:00</time>
      </trkpt>
      <trkpt lat="44.82041" lon="5.04376">
        <ele>323</ele>
        <time>2022-10-10T16:22:26+02:00</time>
      </trkpt>
      <trkpt lat="44.82033" lon="5.04344">
        <ele>321</ele>
        <time>2022-10-10T16:22:52+02:00</time>
      </trkpt>
      <trkpt lat="44.82029" lon="5.04311">
        <ele>318</ele>
        <time>2022-10-10T16:23:10+02:00</time>
      </trkpt>
      <trkpt lat="44.82036" lon="5.04278">
        <ele>318</ele>
        <time>2022-10-10T16:23:29+02:00</time>
      </trkpt>
      <trkpt lat="44.82052" lon="5.04252">
        <ele>320</ele>
        <time>2022-10-10T16:23:47+02:00</time>
      </trkpt>
      <trkpt lat="44.8207" lon="5.04228">
        <ele>321</ele>
        <time>2022-10-10T16:24:08+02:00</time>
      </trkpt>
      <trkpt lat="44.82085" lon="5.04204">
        <ele>320</ele>
        <time>2022-10-10T16:24:28+02:00</time>
      </trkpt>
      <trkpt lat="44.82105" lon="5.04184">
        <ele>321</ele>
        <time>2022-10-10T16:24:46+02:00</time>
      </trkpt>
      <trkpt lat="44.82123" lon="5.04162">
        <ele>321</ele>
        <time>2022-10-10T16:25:17+02:00</time>
      </trkpt>
      <trkpt lat="44.82143" lon="5.04146">
        <ele>324</ele>
        <time>2022-10-10T16:25:41+02:00</time>
      </trkpt>
      <trkpt lat="44.82158" lon="5.04121">
        <ele>323</ele>
        <time>2022-10-10T16:26:05+02:00</time>
      </trkpt>
      <trkpt lat="44.82174" lon="5.04098">
        <ele>325</ele>
        <time>2022-10-10T16:26:30+02:00</time>
      </trkpt>
      <trkpt lat="44.82179" lon="5.04064">
        <ele>324</ele>
        <time>2022-10-10T16:26:51+02:00</time>
      </trkpt>
      <trkpt lat="44.82188" lon="5.04034">
        <ele>324</ele>
        <time>2022-10-10T16:27:13+02:00</time>
      </trkpt>
      <trkpt lat="44.82207" lon="5.04013">
        <ele>327</ele>
        <time>2022-10-10T16:27:33+02:00</time>
      </trkpt>
      <trkpt lat="44.82227" lon="5.03991">
        <ele>329</ele>
        <time>2022-10-10T16:28:12+02:00</time>
      </trkpt>
      <trkpt lat="44.82245" lon="5.03971">
        <ele>329</ele>
        <time>2022-10-10T16:28:30+02:00</time>
      </trkpt>
      <trkpt lat="44.82267" lon="5.03955">
        <ele>328</ele>
        <time>2022-10-10T16:28:47+02:00</time>
      </trkpt>
      <trkpt lat="44.82291" lon="5.03942">
        <ele>328</ele>
        <time>2022-10-10T16:29:08+02:00</time>
      </trkpt>
      <trkpt lat="44.82313" lon="5.03949">
        <ele>328</ele>
        <time>2022-10-10T16:29:28+02:00</time>
      </trkpt>
      <trkpt lat="44.82333" lon="5.03965">
        <ele>328</ele>
        <time>2022-10-10T16:29:49+02:00</time>
      </trkpt>
      <trkpt lat="44.82355" lon="5.03979">
        <ele>327</ele>
        <time>2022-10-10T16:30:12+02:00</time>
      </trkpt>
      <trkpt lat="44.82368" lon="5.0395">
        <ele>322</ele>
        <time>2022-10-10T16:30:34+02:00</time>
      </trkpt>
      <trkpt lat="44.82375" lon="5.03919">
        <ele>320</ele>
        <time>2022-10-10T16:30:58+02:00</time>
      </trkpt>
    </trkseg>
  </trk>
</gpx>